Time;durP1;ratioP1;P1;durP2;ratioP2;P2;SDS_P1;SDS_P2;PMS_P1;PMS_P2;Temp;Humidity;BMP_temperature;BMP_pressure;BME280_temperature;BME280_humidity;BME280_pressure;Samples;Min_cycle;Max_cycle;Signal;HPM_P1;HPM_P2
2023/03/27 00:00:15;;;;;;;39.80;31.33;;;29.90;72.10;;;;;;1746957;82;21155;-80
2023/03/27 00:02:36;;;;;;;39.85;31.37;;;29.90;72.30;;;;;;1738730;80;21233;-80
2023/03/27 00:05:09;;;;;;;45.45;32.42;;;29.90;73.10;;;;;;1788180;80;21466;-80
2023/03/27 00:07:40;;;;;;;43.30;33.55;;;29.90;73.60;;;;;;1780278;80;21564;-80
2023/03/27 00:10:11;;;;;;;46.75;33.95;;;29.80;74.50;;;;;;1747103;81;21289;-80
2023/03/27 00:12:47;;;;;;;50.70;34.92;;;29.80;75.00;;;;;;1796928;78;21128;-80
2023/03/27 00:15:16;;;;;;;47.25;33.15;;;29.90;78.00;;;;;;1744418;80;21203;-81
2023/03/27 00:17:49;;;;;;;41.48;33.02;;;29.90;75.90;;;;;;1744563;81;21229;-80
2023/03/27 00:20:21;;;;;;;43.35;32.95;;;30.00;80.20;;;;;;1744951;81;21207;-80
2023/03/27 00:22:55;;;;;;;38.95;31.52;;;29.90;78.40;;;;;;1790240;79;21149;-79
2023/03/27 00:25:27;;;;;;;42.27;31.17;;;29.90;76.50;;;;;;1754606;81;22171;-79
2023/03/27 00:27:59;;;;;;;36.95;30.10;;;29.90;76.70;;;;;;1789623;80;21209;-79
2023/03/27 00:30:32;;;;;;;36.83;29.25;;;29.80;76.80;;;;;;1745201;81;21175;-79
2023/03/27 00:33:04;;;;;;;36.95;31.68;;;29.90;77.70;;;;;;1792602;78;21164;-79
2023/03/27 00:35:35;;;;;;;35.63;30.12;;;29.80;79.20;;;;;;1744252;82;21193;-79
2023/03/27 00:38:06;;;;;;;41.02;30.68;;;29.80;78.70;;;;;;1791491;80;21238;-77
2023/03/27 00:40:38;;;;;;;42.90;31.42;;;29.80;81.30;;;;;;1717510;82;21266;-79
2023/03/27 00:43:27;;;;;;;37.90;31.35;;;29.80;77.70;;;;;;1787741;79;21100;-79
2023/03/27 00:46:00;;;;;;;42.83;30.68;;;29.80;79.60;;;;;;1715064;83;21571;-79
2023/03/27 00:48:34;;;;;;;40.12;30.90;;;29.90;80.60;;;;;;1788417;79;22100;-80
2023/03/27 00:51:06;;;;;;;36.63;30.12;;;29.80;81.10;;;;;;1789807;79;21743;-79
2023/03/27 00:53:37;;;;;;;45.55;30.32;;;29.90;81.90;;;;;;1783166;80;21170;-79
2023/03/27 00:56:09;;;;;;;35.28;28.65;;;29.90;83.00;;;;;;1787042;79;21236;-79
2023/03/27 00:58:45;;;;;;;35.73;29.15;;;29.90;86.20;;;;;;1788554;79;21236;-80
2023/03/27 01:01:17;;;;;;;43.95;28.73;;;30.00;79.00;;;;;;1772042;79;21688;-78
2023/03/27 01:03:49;;;;;;;41.45;29.18;;;30.00;79.20;;;;;;1790043;80;21134;-79
2023/03/27 01:06:21;;;;;;;35.80;27.87;;;30.10;79.00;;;;;;1790331;80;21407;-79
2023/03/27 01:08:53;;;;;;;37.95;29.02;;;30.10;79.80;;;;;;1756836;81;21150;-79
2023/03/27 01:11:42;;;;;;;36.65;28.38;;;30.30;80.20;;;;;;1790786;79;21154;-81
2023/03/27 01:14:21;;;;;;;35.10;27.82;;;30.30;79.00;;;;;;1757374;81;21170;-79
2023/03/27 01:16:58;;;;;;;36.38;28.80;;;30.40;80.10;;;;;;1789403;79;21189;-79
2023/03/27 01:19:55;;;;;;;50.48;29.55;;;30.40;83.60;;;;;;1791070;79;21167;-79
2023/03/27 01:22:51;;;;;;;50.88;29.48;;;30.50;77.90;;;;;;1783974;80;21181;-79
2023/03/27 01:25:46;;;;;;;44.80;30.00;;;30.60;79.90;;;;;;1788373;80;21107;-78
2023/03/27 01:28:25;;;;;;;37.33;29.70;;;30.60;82.30;;;;;;1793745;79;21145;-80
2023/03/27 01:31:34;;;;;;;38.90;29.77;;;30.60;84.50;;;;;;1781516;79;21288;-80
2023/03/27 01:34:24;;;;;;;43.42;30.60;;;30.70;79.30;;;;;;1727309;82;21287;-80
2023/03/27 01:37:13;;;;;;;39.65;29.37;;;30.70;79.50;;;;;;1695658;82;21296;-79
2023/03/27 01:40:09;;;;;;;60.40;32.05;;;30.70;80.30;;;;;;1717663;81;21259;-80
2023/03/27 01:42:48;;;;;;;40.78;30.57;;;30.70;81.70;;;;;;1796132;78;21158;-80
2023/03/27 01:45:31;;;;;;;41.02;31.50;;;30.80;80.60;;;;;;1751635;80;21135;-80
2023/03/27 01:48:13;;;;;;;44.53;30.62;;;30.90;81.20;;;;;;1777210;79;21317;-79
2023/03/27 01:50:50;;;;;;;37.55;30.70;;;31.00;82.80;;;;;;1791024;79;21171;-76
2023/03/27 01:53:29;;;;;;;35.98;29.45;;;31.00;83.20;;;;;;1788744;79;21178;-79
2023/03/27 01:56:09;;;;;;;43.92;32.83;;;31.10;85.00;;;;;;1790177;79;21159;-79
2023/03/27 01:58:45;;;;;;;37.60;31.52;;;31.10;80.50;;;;;;1794638;78;21158;-80
2023/03/27 02:01:21;;;;;;;41.70;32.25;;;31.20;80.20;;;;;;1751809;81;21189;-80
2023/03/27 02:03:54;;;;;;;38.00;32.23;;;31.20;80.00;;;;;;1782365;80;21271;-81
2023/03/27 02:06:43;;;;;;;63.80;34.08;;;31.30;80.30;;;;;;1751479;81;21446;-82
2023/03/27 02:09:25;;;;;;;46.15;32.35;;;31.50;79.60;;;;;;1789095;80;21526;-80
2023/03/27 02:12:10;;;;;;;42.60;33.45;;;31.50;78.20;;;;;;1745952;82;21191;-80
2023/03/27 02:14:44;;;;;;;40.80;33.18;;;31.60;78.40;;;;;;1787351;78;21146;-81
2023/03/27 02:17:17;;;;;;;41.50;33.75;;;31.60;76.00;;;;;;1745244;82;21165;-81
2023/03/27 02:19:51;;;;;;;41.73;33.15;;;31.70;77.10;;;;;;1787660;80;21177;-79
2023/03/27 02:22:23;;;;;;;42.38;32.73;;;31.80;76.40;;;;;;1787088;80;21157;-79
2023/03/27 02:24:55;;;;;;;42.05;33.83;;;31.80;76.10;;;;;;1783260;80;21191;-80
2023/03/27 02:27:29;;;;;;;41.48;33.33;;;31.90;76.30;;;;;;1781119;80;21169;-82
2023/03/27 02:30:18;;;;;;;38.05;32.75;;;32.10;75.70;;;;;;1785589;79;21258;-82
2023/03/27 02:32:57;;;;;;;46.50;33.90;;;32.10;75.40;;;;;;1785295;80;21225;-84
2023/03/27 02:35:46;;;;;;;40.15;32.28;;;32.20;76.50;;;;;;1785188;80;21165;-81
2023/03/27 02:38:22;;;;;;;40.48;32.45;;;32.20;77.60;;;;;;1785370;80;21163;-83
2023/03/27 02:40:58;;;;;;;45.78;33.00;;;32.40;77.00;;;;;;1790540;80;21108;-83
2023/03/27 02:43:44;;;;;;;43.65;32.80;;;32.40;72.70;;;;;;1746563;82;21212;-82
2023/03/27 02:46:25;;;;;;;42.50;32.63;;;32.60;73.00;;;;;;1787533;78;21216;-81
2023/03/27 02:48:58;;;;;;;45.48;32.10;;;32.70;74.50;;;;;;1792135;80;21169;-81
2023/03/27 02:51:40;;;;;;;63.70;34.27;;;32.80;73.70;;;;;;1792710;79;21113;-81
2023/03/27 02:54:14;;;;;;;45.75;33.40;;;33.00;73.30;;;;;;1761759;79;21654;-81
2023/03/27 02:56:48;;;;;;;43.10;33.05;;;33.00;73.20;;;;;;1794357;80;22130;-82
2023/03/27 02:59:29;;;;;;;48.23;33.25;;;33.30;76.90;;;;;;1794862;78;21256;-82
2023/03/27 03:02:01;;;;;;;44.15;33.02;;;33.30;71.80;;;;;;1770007;80;21203;-81
2023/03/27 03:04:40;;;;;;;62.27;34.78;;;33.60;77.80;;;;;;1770969;80;21119;-82
2023/03/27 03:07:13;;;;;;;45.88;31.80;;;33.50;63.50;;;;;;1793782;80;21150;-79
2023/03/27 03:09:44;;;;;;;48.95;31.73;;;33.60;60.40;;;;;;1795445;80;21095;-80
2023/03/27 03:12:17;;;;;;;42.80;30.88;;;33.80;55.70;;;;;;1773452;81;21168;-79
2023/03/27 03:14:48;;;;;;;37.90;29.50;;;33.90;54.60;;;;;;1797155;79;21221;-78
2023/03/27 03:17:20;;;;;;;32.55;28.83;;;34.10;54.40;;;;;;1770484;79;21145;-80
2023/03/27 03:19:52;;;;;;;36.98;29.90;;;34.20;53.60;;;;;;1797678;79;21231;-80
2023/03/27 03:22:24;;;;;;;35.25;28.32;;;34.30;53.60;;;;;;1758129;80;21203;-80
2023/03/27 03:24:56;;;;;;;35.75;27.30;;;34.40;52.30;;;;;;1763400;80;21206;-80
2023/03/27 03:27:28;;;;;;;37.10;29.85;;;34.40;52.20;;;;;;1754348;81;21262;-80
2023/03/27 03:29:59;;;;;;;34.75;29.15;;;34.50;52.30;;;;;;1791548;78;21707;-80
2023/03/27 03:32:30;;;;;;;29.00;24.45;;;34.60;51.70;;;;;;1793334;78;21144;-79
2023/03/27 03:35:01;;;;;;;36.77;27.87;;;34.70;50.50;;;;;;1767893;81;21156;-81
2023/03/27 03:37:37;;;;;;;34.25;27.82;;;34.80;49.90;;;;;;1779515;78;21352;-80
2023/03/27 03:40:11;;;;;;;39.98;27.75;;;34.90;50.40;;;;;;1756638;81;21215;-81
2023/03/27 03:42:47;;;;;;;26.37;23.40;;;35.00;49.90;;;;;;1791937;79;21940;-81
2023/03/27 03:45:19;;;;;;;32.90;24.75;;;35.10;48.60;;;;;;1787722;80;21159;-81
2023/03/27 03:47:50;;;;;;;34.90;25.00;;;35.20;47.50;;;;;;1746890;81;21191;-81
2023/03/27 03:50:21;;;;;;;27.58;24.60;;;35.30;48.50;;;;;;1810627;78;21158;-81
2023/03/27 03:52:52;;;;;;;31.80;24.40;;;35.30;47.30;;;;;;1763481;79;21186;-82
2023/03/27 03:55:26;;;;;;;28.92;25.80;;;35.40;48.20;;;;;;1762225;80;21154;-80
2023/03/27 03:57:57;;;;;;;32.90;26.80;;;35.40;47.20;;;;;;1791966;79;21163;-80
2023/03/27 04:00:33;;;;;;;28.95;25.90;;;35.60;48.00;;;;;;1782263;78;21650;-81
2023/03/27 04:03:04;;;;;;;34.35;29.07;;;35.60;47.50;;;;;;1793967;79;21590;-82
2023/03/27 04:05:37;;;;;;;32.65;28.07;;;35.70;47.60;;;;;;1768733;81;21605;-82
2023/03/27 04:08:08;;;;;;;30.80;26.60;;;35.70;47.70;;;;;;1795005;79;21920;-81
2023/03/27 04:10:41;;;;;;;31.87;26.93;;;35.80;47.30;;;;;;1755370;81;21247;-80
2023/03/27 04:13:12;;;;;;;35.15;27.60;;;35.80;47.30;;;;;;1766744;81;21703;-82
2023/03/27 04:15:43;;;;;;;29.70;26.52;;;35.90;47.50;;;;;;1774620;79;21155;-81
2023/03/27 04:18:15;;;;;;;30.77;25.82;;;36.00;47.00;;;;;;1774878;81;21161;-81
2023/03/27 04:20:55;;;;;;;31.85;25.30;;;36.10;45.80;;;;;;1792277;80;21150;-80
2023/03/27 04:23:34;;;;;;;32.35;26.62;;;36.20;46.20;;;;;;1786474;79;21153;-81
2023/03/27 04:26:06;;;;;;;30.32;25.40;;;36.40;54.10;;;;;;1805557;78;21190;-82
2023/03/27 04:28:38;;;;;;;38.80;26.87;;;36.50;57.30;;;;;;1796973;79;21340;-76
2023/03/27 04:31:10;;;;;;;27.77;23.35;;;36.60;55.80;;;;;;1798473;79;21286;-74
2023/03/27 04:33:50;;;;;;;30.32;22.58;;;36.50;52.70;;;;;;1790621;79;21203;-74
2023/03/27 04:36:15;;;;;;;25.82;22.87;;;36.50;55.60;;;;;;1790752;79;22045;-77
2023/03/27 04:38:49;;;;;;;37.65;25.97;;;36.60;55.50;;;;;;1791225;80;21191;-76
2023/03/27 04:41:20;;;;;;;27.22;24.23;;;36.80;58.60;;;;;;1791217;80;21124;-77
2023/03/27 04:43:51;;;;;;;51.05;30.72;;;36.70;54.90;;;;;;1801232;79;21077;-76
2023/03/27 04:46:22;;;;;;;25.23;22.52;;;36.60;54.40;;;;;;1796088;79;21232;-76
2023/03/27 04:48:53;;;;;;;28.62;23.60;;;36.60;44.10;;;;;;1774177;81;21225;-76
2023/03/27 04:51:25;;;;;;;28.38;24.60;;;36.60;44.40;;;;;;1775222;79;21290;-74
2023/03/27 04:53:56;;;;;;;26.20;23.38;;;36.70;44.30;;;;;;1791017;79;21176;-75
2023/03/27 04:56:29;;;;;;;26.52;23.10;;;36.70;44.70;;;;;;1791031;80;21537;-74
2023/03/27 04:59:02;;;;;;;28.32;23.42;;;36.80;44.70;;;;;;1789533;80;21912;-75
2023/03/27 05:01:33;;;;;;;34.23;26.90;;;36.90;44.20;;;;;;1789622;79;22582;-75
2023/03/27 05:04:10;;;;;;;27.13;22.45;;;37.00;44.50;;;;;;1789500;79;21665;-76
2023/03/27 05:06:39;;;;;;;25.75;22.07;;;37.10;44.00;;;;;;1786772;80;21142;-75
2023/03/27 05:09:10;;;;;;;27.58;22.13;;;37.00;44.20;;;;;;1788302;79;21204;-76
2023/03/27 05:11:41;;;;;;;25.25;20.97;;;36.90;45.10;;;;;;1788240;79;21287;-75
2023/03/27 05:14:13;;;;;;;28.60;22.00;;;36.70;44.50;;;;;;1746360;81;21911;-78
2023/03/27 05:16:45;;;;;;;25.85;20.17;;;36.50;44.40;;;;;;1793401;80;21159;-75
2023/03/27 05:19:18;;;;;;;24.27;21.68;;;36.40;44.60;;;;;;1730539;80;21832;-75
2023/03/27 05:21:50;;;;;;;30.97;21.80;;;36.30;44.70;;;;;;1794692;79;21455;-75
2023/03/27 05:24:21;;;;;;;28.10;21.70;;;36.20;44.80;;;;;;1751865;80;21290;-75
2023/03/27 05:26:52;;;;;;;24.02;19.98;;;36.10;45.00;;;;;;1773840;80;21152;-76
2023/03/27 05:29:24;;;;;;;22.98;18.92;;;36.00;44.50;;;;;;1761137;80;21189;-75
2023/03/27 05:31:55;;;;;;;31.27;16.42;;;36.00;44.80;;;;;;1752047;80;21214;-73
2023/03/27 05:34:33;;;;;;;20.70;16.45;;;36.10;43.80;;;;;;1742058;80;21197;-74
2023/03/27 05:37:05;;;;;;;23.38;15.35;;;36.30;43.30;;;;;;1789426;79;21348;-74
2023/03/27 05:39:36;;;;;;;19.87;15.68;;;36.50;42.00;;;;;;1786249;78;21765;-74
2023/03/27 05:42:08;;;;;;;19.65;14.80;;;36.70;42.20;;;;;;1746852;80;21203;-75
2023/03/27 05:44:43;;;;;;;21.20;14.80;;;36.80;41.70;;;;;;1793548;79;21219;-73
2023/03/27 05:47:15;;;;;;;16.70;14.90;;;37.00;41.20;;;;;;1748894;80;21626;-74
2023/03/27 05:49:46;;;;;;;18.92;16.10;;;37.10;41.20;;;;;;1809503;79;21098;-74
2023/03/27 05:52:17;;;;;;;22.02;15.83;;;37.20;41.50;;;;;;1803384;79;21925;-73
2023/03/27 05:54:48;;;;;;;17.90;15.48;;;37.30;41.00;;;;;;1802797;79;21828;-73
2023/03/27 05:57:19;;;;;;;16.40;14.65;;;37.50;40.60;;;;;;1706663;83;21259;-75
2023/03/27 05:59:50;;;;;;;20.05;14.60;;;37.50;41.20;;;;;;1797711;79;21223;-75
2023/03/27 06:02:23;;;;;;;15.75;14.07;;;37.60;40.80;;;;;;1728388;81;21276;-75
2023/03/27 06:04:57;;;;;;;39.58;16.87;;;37.70;41.50;;;;;;1792139;78;21164;-75
2023/03/27 06:07:29;;;;;;;21.07;14.00;;;37.80;40.70;;;;;;1791657;78;21607;-73
2023/03/27 06:10:00;;;;;;;28.25;14.93;;;37.90;39.80;;;;;;1796589;78;21704;-73
2023/03/27 06:12:31;;;;;;;20.20;12.85;;;37.90;39.60;;;;;;1781015;80;21167;-74
2023/03/27 06:15:06;;;;;;;15.30;12.33;;;38.00;40.10;;;;;;1799917;78;21175;-74
2023/03/27 06:17:39;;;;;;;20.45;14.05;;;38.00;39.30;;;;;;1775854;80;21172;-73
2023/03/27 06:20:11;;;;;;;14.23;11.10;;;38.00;40.20;;;;;;1775423;80;21170;-72
2023/03/27 06:22:48;;;;;;;17.82;11.57;;;38.00;39.40;;;;;;1797309;78;21630;-73
2023/03/27 06:25:23;;;;;;;16.62;10.90;;;38.00;39.50;;;;;;1754299;80;21500;-73
2023/03/27 06:27:55;;;;;;;16.73;10.50;;;38.00;39.70;;;;;;1775026;80;21212;-75
2023/03/27 06:30:29;;;;;;;21.00;11.68;;;38.00;39.90;;;;;;1804536;78;21854;-75
2023/03/27 06:33:01;;;;;;;14.75;9.73;;;39.00;43.60;;;;;;1802296;78;21493;-73
2023/03/27 06:35:35;;;;;;;11.37;10.00;;;38.10;44.10;;;;;;1790948;78;21179;-73
2023/03/27 06:38:07;;;;;;;14.68;10.78;;;38.00;41.80;;;;;;1791958;78;21454;-75
2023/03/27 06:40:38;;;;;;;14.23;10.82;;;38.20;58.60;;;;;;1797828;78;21298;-74
2023/03/27 06:43:10;;;;;;;12.60;10.10;;;38.30;61.00;;;;;;1774613;80;21206;-74
2023/03/27 06:45:47;;;;;;;11.87;10.33;;;38.40;60.20;;;;;;1809643;78;21735;-73
2023/03/27 06:48:20;;;;;;;13.08;9.80;;;38.40;60.90;;;;;;1706228;83;21626;-73
2023/03/27 06:50:52;;;;;;;14.38;10.03;;;38.40;62.70;;;;;;1796758;78;21269;-73
2023/03/27 06:53:24;;;;;;;11.15;9.70;;;38.40;62.80;;;;;;1799073;80;21103;-73
2023/03/27 06:55:57;;;;;;;10.45;9.43;;;38.40;61.50;;;;;;1804160;78;21421;-73
2023/03/27 06:58:38;;;;;;;11.12;9.83;;;38.30;60.40;;;;;;1742856;82;21426;-72
2023/03/27 07:01:03;;;;;;;10.85;9.65;;;38.40;61.60;;;;;;1805015;78;21118;-73
2023/03/27 07:03:34;;;;;;;10.70;9.20;;;38.30;60.50;;;;;;1774767;80;22029;-74
2023/03/27 07:06:06;;;;;;;10.38;9.28;;;38.20;60.30;;;;;;1792100;78;21218;-75
2023/03/27 07:08:37;;;;;;;11.40;9.20;;;38.10;61.70;;;;;;1792292;78;21234;-73
2023/03/27 07:11:08;;;;;;;14.10;10.08;;;38.20;61.70;;;;;;1791610;78;21566;-73
2023/03/27 07:13:42;;;;;;;12.73;9.50;;;38.00;61.20;;;;;;1807209;78;21133;-73
2023/03/27 07:16:13;;;;;;;14.07;9.43;;;38.00;62.00;;;;;;1774897;80;21166;-72
2023/03/27 07:18:44;;;;;;;15.68;10.63;;;38.10;61.40;;;;;;1752938;81;21215;-75
2023/03/27 07:21:15;;;;;;;14.00;9.10;;;38.00;61.00;;;;;;1792134;78;21327;-73
2023/03/27 07:23:47;;;;;;;12.28;9.25;;;38.10;60.60;;;;;;1798539;78;21200;-74
2023/03/27 07:26:19;;;;;;;12.75;9.85;;;38.20;60.80;;;;;;1790550;80;21457;-73
2023/03/27 07:28:50;;;;;;;15.83;9.95;;;38.10;61.20;;;;;;1786392;78;21139;-73
2023/03/27 07:31:21;;;;;;;16.97;11.90;;;38.00;60.80;;;;;;1797216;78;21151;-73
2023/03/27 07:33:54;;;;;;;15.35;10.20;;;38.10;60.00;;;;;;1794017;79;21161;-73
2023/03/27 07:36:25;;;;;;;13.28;9.63;;;38.00;59.40;;;;;;1774596;80;21200;-72
2023/03/27 07:38:57;;;;;;;12.35;9.93;;;38.10;59.50;;;;;;1803162;78;21844;-72
2023/03/27 07:41:33;;;;;;;15.03;10.13;;;38.10;61.00;;;;;;1783718;80;21158;-73
2023/03/27 07:44:01;;;;;;;18.80;10.58;;;38.10;61.10;;;;;;1777707;79;21328;-73
2023/03/27 07:46:32;;;;;;;13.22;9.70;;;38.00;60.00;;;;;;1792001;78;21199;-73
2023/03/27 07:49:03;;;;;;;14.33;10.10;;;38.10;59.40;;;;;;1789064;78;21247;-73
2023/03/27 07:51:35;;;;;;;15.48;10.53;;;38.00;59.80;;;;;;1793886;78;21424;-72
2023/03/27 07:54:06;;;;;;;12.58;10.15;;;38.00;60.50;;;;;;1794062;80;21197;-73
2023/03/27 07:56:37;;;;;;;14.53;10.20;;;38.00;61.00;;;;;;1803067;78;21175;-72
2023/03/27 07:59:10;;;;;;;21.27;12.93;;;38.00;60.90;;;;;;1758647;81;21214;-73
2023/03/27 08:01:41;;;;;;;11.10;9.93;;;38.10;61.20;;;;;;1742718;81;21285;-74
2023/03/27 08:04:12;;;;;;;13.95;11.18;;;38.00;60.20;;;;;;1743343;81;21289;-72
2023/03/27 08:06:44;;;;;;;16.17;11.12;;;38.00;60.00;;;;;;1793988;78;21168;-73
2023/03/27 08:09:16;;;;;;;18.00;11.28;;;38.00;59.40;;;;;;1744461;80;21201;-72
2023/03/27 08:11:49;;;;;;;18.48;12.25;;;38.20;59.70;;;;;;1794081;79;21182;-72
2023/03/27 08:14:19;;;;;;;13.85;11.35;;;38.10;59.80;;;;;;1746476;80;21270;-73
2023/03/27 08:16:51;;;;;;;18.42;10.90;;;38.10;59.80;;;;;;1733316;82;21165;-74
2023/03/27 08:19:24;;;;;;;17.52;12.25;;;38.20;59.70;;;;;;1788631;80;21211;-73
2023/03/27 08:21:56;;;;;;;13.85;10.35;;;38.30;59.80;;;;;;1794218;80;21395;-73
2023/03/27 08:24:27;;;;;;;16.87;11.03;;;38.20;59.70;;;;;;1793916;80;21712;-74
2023/03/27 08:26:58;;;;;;;11.73;10.58;;;38.20;59.50;;;;;;1726919;81;21435;-73
2023/03/27 08:29:31;;;;;;;13.13;10.93;;;38.10;59.50;;;;;;1792045;80;21166;-73
2023/03/27 08:32:02;;;;;;;12.50;10.32;;;38.20;59.60;;;;;;1792965;80;21286;-73
2023/03/27 08:34:33;;;;;;;11.93;10.68;;;38.10;59.90;;;;;;1800999;79;21647;-73
2023/03/27 08:37:05;;;;;;;11.68;10.48;;;38.00;61.60;;;;;;1765097;81;21177;-72
2023/03/27 08:39:37;;;;;;;13.28;10.68;;;38.10;61.50;;;;;;1787213;80;21173;-72
2023/03/27 08:42:11;;;;;;;14.23;10.88;;;38.00;61.50;;;;;;1793273;79;21427;-72
2023/03/27 08:44:43;;;;;;;13.75;10.25;;;38.00;61.80;;;;;;1795508;79;21504;-71
2023/03/27 08:47:22;;;;;;;12.60;10.90;;;38.00;61.30;;;;;;1793185;80;21257;-72
2023/03/27 08:49:56;;;;;;;13.13;10.38;;;38.10;61.50;;;;;;1787149;79;21187;-72
2023/03/27 08:52:30;;;;;;;13.78;10.60;;;38.10;62.60;;;;;;1745933;82;21219;-72
2023/03/27 08:55:07;;;;;;;12.50;11.05;;;38.10;63.40;;;;;;1745315;82;21706;-72
2023/03/27 08:57:38;;;;;;;12.47;11.15;;;38.00;63.80;;;;;;1805300;79;21139;-73
2023/03/27 09:00:12;;;;;;;14.10;11.45;;;38.10;64.50;;;;;;1745326;82;21506;-73
2023/03/27 09:02:55;;;;;;;12.10;10.82;;;38.00;64.40;;;;;;1788383;78;21284;-72
2023/03/27 09:05:35;;;;;;;12.73;10.75;;;38.00;64.60;;;;;;1757695;80;21196;-71
2023/03/27 09:08:18;;;;;;;12.85;11.45;;;37.90;67.90;;;;;;1771541;81;21200;-71
2023/03/27 09:11:09;;;;;;;13.90;11.75;;;38.00;68.50;;;;;;1737674;81;21207;-70
2023/03/27 09:13:46;;;;;;;13.28;11.88;;;37.80;69.30;;;;;;1793469;79;21476;-73
2023/03/27 09:16:20;;;;;;;13.22;11.57;;;37.90;69.80;;;;;;1790671;79;21109;-72
2023/03/27 09:18:59;;;;;;;15.18;11.97;;;37.80;70.30;;;;;;1787551;79;21133;-72
2023/03/27 09:21:40;;;;;;;13.28;11.95;;;37.80;70.50;;;;;;1762544;81;21188;-72
2023/03/27 09:24:32;;;;;;;12.50;11.20;;;37.70;70.60;;;;;;1785090;78;21156;-72
2023/03/27 09:27:15;;;;;;;17.60;12.88;;;37.80;70.50;;;;;;1778582;80;21131;-72
2023/03/27 09:29:49;;;;;;;14.25;11.30;;;37.60;70.40;;;;;;1785308;80;21128;-73
2023/03/27 09:32:22;;;;;;;14.65;11.88;;;37.60;70.70;;;;;;1789564;78;21246;-73
2023/03/27 09:34:54;;;;;;;13.98;11.75;;;37.70;71.20;;;;;;1789791;80;21172;-71
2023/03/27 09:37:30;;;;;;;20.10;12.00;;;37.50;70.30;;;;;;1801113;78;21255;-72
2023/03/27 09:40:12;;;;;;;15.03;11.30;;;37.60;69.50;;;;;;1770102;79;21226;-72
2023/03/27 09:42:46;;;;;;;15.98;11.75;;;37.50;69.80;;;;;;1789730;79;21229;-72
2023/03/27 09:45:23;;;;;;;16.00;11.08;;;37.40;70.00;;;;;;1775848;78;21384;-77
2023/03/27 09:48:06;;;;;;;18.60;12.25;;;37.50;70.40;;;;;;1793431;78;21211;-72
2023/03/27 09:50:45;;;;;;;16.12;12.35;;;37.40;70.60;;;;;;1792800;79;21138;-73
2023/03/27 09:53:19;;;;;;;13.40;11.65;;;37.30;70.80;;;;;;1770968;79;21122;-72
2023/03/27 09:56:02;;;;;;;18.20;11.50;;;37.40;71.30;;;;;;1806669;78;21176;-72
2023/03/27 09:58:42;;;;;;;13.50;11.95;;;37.40;71.50;;;;;;1757849;80;21583;-74
2023/03/27 10:01:20;;;;;;;14.58;11.88;;;37.40;70.90;;;;;;1796693;79;21270;-72
2023/03/27 10:03:52;;;;;;;14.43;12.03;;;37.20;70.40;;;;;;1790173;80;21239;-73
2023/03/27 10:06:32;;;;;;;13.25;11.43;;;37.30;70.10;;;;;;1788598;80;21213;-72
2023/03/27 10:09:23;;;;;;;14.63;11.78;;;37.20;70.00;;;;;;1781125;78;21156;-73
2023/03/27 10:12:08;;;;;;;15.32;12.37;;;37.10;71.10;;;;;;1793941;78;21175;-72
2023/03/27 10:14:46;;;;;;;15.00;12.68;;;37.20;71.70;;;;;;1759373;80;21193;-72
2023/03/27 10:17:36;;;;;;;17.10;13.13;;;37.10;71.80;;;;;;1789993;79;21118;-72
2023/03/27 10:20:18;;;;;;;17.15;12.55;;;37.30;70.80;;;;;;1793145;79;21213;-73
2023/03/27 10:22:55;;;;;;;17.42;13.38;;;37.10;73.30;;;;;;1789712;79;21154;-73
2023/03/27 10:25:34;;;;;;;43.90;15.32;;;37.00;73.50;;;;;;1788601;80;21208;-73
2023/03/27 10:28:20;;;;;;;22.30;13.15;;;37.00;74.40;;;;;;1791169;79;21222;-72
2023/03/27 10:31:09;;;;;;;20.62;12.90;;;37.10;74.90;;;;;;1777543;80;21377;-73
2023/03/27 10:33:42;;;;;;;15.13;13.50;;;37.00;75.30;;;;;;1800046;79;21496;-73
2023/03/27 10:36:13;;;;;;;19.75;13.53;;;37.00;74.80;;;;;;1796415;79;21135;-73
2023/03/27 10:38:46;;;;;;;19.92;13.80;;;36.90;75.00;;;;;;1811345;79;21609;-73
2023/03/27 10:41:18;;;;;;;22.02;15.80;;;36.90;74.80;;;;;;1802462;78;21183;-73
2023/03/27 10:43:52;;;;;;;17.37;15.13;;;37.00;75.10;;;;;;1727958;83;22137;-72
2023/03/27 10:46:25;;;;;;;18.52;14.33;;;37.00;75.40;;;;;;1802492;78;21208;-73
2023/03/27 10:49:21;;;;;;;19.90;15.70;;;36.90;75.50;;;;;;1712093;83;22393;-74
2023/03/27 10:52:25;;;;;;;20.68;15.13;;;36.80;76.50;;;;;;1792205;79;21200;-73
2023/03/27 10:55:01;;;;;;;19.10;14.75;;;36.80;76.40;;;;;;1754064;81;21233;-74
2023/03/27 10:57:34;;;;;;;20.55;14.85;;;36.80;76.40;;;;;;1768391;80;21147;-73
2023/03/27 11:00:17;;;;;;;18.42;14.75;;;36.70;76.00;;;;;;1808361;79;21163;-73
2023/03/27 11:03:04;;;;;;;19.87;14.65;;;36.60;76.80;;;;;;1795373;79;21236;-72
2023/03/27 11:05:37;;;;;;;18.57;15.88;;;36.60;76.20;;;;;;1807274;78;21250;-73
2023/03/27 11:08:25;;;;;;;18.57;14.63;;;36.60;76.40;;;;;;1774092;79;21230;-74
2023/03/27 11:10:58;;;;;;;19.37;16.05;;;36.50;77.00;;;;;;1790121;80;21209;-74
2023/03/27 11:13:32;;;;;;;21.45;16.05;;;36.50;76.60;;;;;;1788504;80;21187;-74
2023/03/27 11:16:11;;;;;;;20.27;16.35;;;36.50;76.60;;;;;;1777212;79;21193;-75
2023/03/27 11:18:51;;;;;;;21.12;16.37;;;36.30;54.20;;;;;;1789317;80;21138;-74
2023/03/27 11:21:24;;;;;;;21.65;16.12;;;36.30;54.40;;;;;;1787547;80;21270;-75
2023/03/27 11:24:00;;;;;;;23.05;17.50;;;36.20;54.30;;;;;;1789892;80;21175;-76
2023/03/27 11:26:46;;;;;;;25.45;17.23;;;36.30;54.70;;;;;;1780014;79;21681;-74
2023/03/27 11:29:22;;;;;;;24.72;17.52;;;36.20;54.90;;;;;;1786762;80;21200;-74
2023/03/27 11:31:57;;;;;;;22.05;18.30;;;36.20;54.80;;;;;;1784686;79;21152;-75
2023/03/27 11:34:47;;;;;;;21.60;17.48;;;36.10;54.70;;;;;;1739927;81;21415;-75
2023/03/27 11:37:30;;;;;;;26.20;17.75;;;36.20;54.80;;;;;;1721522;83;21193;-74
2023/03/27 11:40:08;;;;;;;23.62;17.32;;;36.10;54.90;;;;;;1698112;81;21218;-75
2023/03/27 11:42:41;;;;;;;27.93;17.23;;;36.10;54.90;;;;;;1743469;81;21248;-73
2023/03/27 11:45:15;;;;;;;22.20;18.57;;;36.10;55.20;;;;;;1745321;81;21221;-75
2023/03/27 11:48:06;;;;;;;22.80;17.30;;;36.10;55.20;;;;;;1754288;81;21179;-73
2023/03/27 11:51:02;;;;;;;23.30;16.85;;;36.00;55.20;;;;;;1746546;82;21123;-80
2023/03/27 11:53:42;;;;;;;29.15;18.00;;;36.00;55.30;;;;;;1723309;81;21161;-80
2023/03/27 11:56:22;;;;;;;21.75;17.27;;;36.00;55.70;;;;;;1706189;83;21260;-81
2023/03/27 11:59:01;;;;;;;22.95;17.37;;;35.90;55.50;;;;;;1744579;81;21161;-79
2023/03/27 12:01:42;;;;;;;24.75;18.80;;;35.90;55.80;;;;;;1715679;83;21195;-80
2023/03/27 12:04:19;;;;;;;23.18;17.77;;;35.90;56.10;;;;;;1711244;82;21246;-79
2023/03/27 12:06:59;;;;;;;;;;;35.80;56.30;;;;;;1750497;80;21283;-80
2023/03/27 12:10:01;;;;;;;20.25;16.37;;;35.80;56.30;;;;;;1793319;80;20685;-80
2023/03/27 12:13:01;;;;;;;22.32;17.57;;;35.80;56.70;;;;;;1781104;79;21166;-80
2023/03/27 12:15:56;;;;;;;25.80;17.02;;;35.60;45.80;;;;;;1784398;79;21237;-81
2023/03/27 12:18:50;;;;;;;22.05;17.02;;;35.50;45.90;;;;;;1782586;80;21681;-80
2023/03/27 12:21:28;;;;;;;;;;;35.50;46.10;;;;;;1778099;80;21106;-79
2023/03/27 12:24:01;;;;;;;22.60;16.75;;;35.50;46.10;;;;;;1791035;79;20551;-81
2023/03/27 12:27:04;;;;;;;24.85;17.60;;;35.40;46.70;;;;;;1784426;79;21212;-80
2023/03/27 12:29:56;;;;;;;23.98;17.55;;;35.40;46.90;;;;;;1804239;79;21125;-80
2023/03/27 12:32:41;;;;;;;20.48;17.30;;;35.40;47.30;;;;;;1790391;79;21120;-80
2023/03/27 12:35:17;;;;;;;21.55;17.35;;;35.30;47.40;;;;;;1796452;79;21240;-80
2023/03/27 12:38:05;;;;;;;25.85;18.07;;;35.30;47.60;;;;;;1777909;80;21193;-78
2023/03/27 12:40:42;;;;;;;29.70;18.10;;;35.30;48.00;;;;;;1774369;80;21582;-80
2023/03/27 12:43:25;;;;;;;25.15;18.42;;;35.30;48.00;;;;;;1778247;80;21154;-80
2023/03/27 12:46:11;;;;;;;25.72;19.15;;;35.20;48.00;;;;;;1779907;79;21153;-81
2023/03/27 12:48:59;;;;;;;29.12;20.88;;;35.20;47.90;;;;;;1783853;80;21201;-80
2023/03/27 12:51:49;;;;;;;25.20;19.48;;;35.20;48.20;;;;;;1788268;80;21224;-79
2023/03/27 12:54:31;;;;;;;25.37;21.33;;;35.20;48.10;;;;;;1781490;79;21229;-80
2023/03/27 12:57:23;;;;;;;29.60;22.85;;;35.20;48.10;;;;;;1796071;79;21162;-79
2023/03/27 13:00:00;;;;;;;32.88;22.35;;;35.10;48.50;;;;;;1781554;80;21806;-81
2023/03/27 13:02:34;;;;;;;;;;;35.10;48.60;;;;;;1804117;79;21181;-79
2023/03/27 13:05:13;;;;;;;28.40;21.37;;;35.10;48.70;;;;;;1778642;80;20190;-81
2023/03/27 13:07:49;;;;;;;29.60;21.23;;;35.10;60.20;;;;;;1786188;80;21701;-79
2023/03/27 13:10:50;;;;;;;29.15;20.75;;;35.10;60.80;;;;;;1775464;80;21185;-80
2023/03/27 13:13:41;;;;;;;26.77;21.10;;;35.10;61.00;;;;;;1783893;79;21160;-78